Jennings, LA

4:23 PM CST on December 12, 2019 (GMT -0600)
Jennings

Weather History for K3R7 - November, 2019

Change the Weather History Date:

Tuesday, November 19, 2019

  Actual Average (WUND) Record (WUND)
Temperature  
Mean Temperature 59 °F -  
Max Temperature 77 °F - - (-1)
Min Temperature 41 °F - - (-1)
Degree Days  
Heating Degree Days 6    
Growing Degree Days 9 (Base 50)    
Moisture  
Dew Point 48 °F    
Average Humidity 73    
Maximum Humidity 97    
Minimum Humidity 29    
Precipitation  
Precipitation 0.00 in - - ()
Sea Level Pressure  
Sea Level Pressure 30.01 in    
Wind  
Wind Speed 2 mph (WSW)    
Max Wind Speed 9 mph    
Max Gust Speed -    
Visibility 9 miles    
Events Fog    
Averages and records for this station are not official NWS values.
T = Trace of Precipitation, MM = Missing Value Source: NWS Daily Summary

Daily Weather History Graph

Daily Weather History Graph

Search for Another Location

Airport or City:

Astronomy

Nov. 19, 2019 Rise Set
Actual Time 6:39 AM CST 5:12 PM CST
Civil Twilight 6:13 AM CST 5:38 PM CST
Nautical Twilight 5:44 AM CST 6:07 PM CST
Astronomical Twilight 5:16 AM CST 6:35 PM CST
Moon No Moon Rise 12:52 PM CST (11/19)
Length of Visible Light 11h 24m
Length of Day
10h 33m
Waning Gibbous, 51% of the Moon is Illuminated
Nov 19
Waning Gibbous
Nov 19
Last Quarter
Nov 26
New
Dec 4
First Quarter
Dec 11
Full

Hourly Weather History & Observations

Time (CST) Temp. Dew Point Humidity Pressure Visibility Wind Dir Wind Speed Gust Speed Precip Events Conditions
12:15 AM 45.5 °F 41.7 °F 87% 29.95 in 10.0 mi Calm Calm - N/A   Clear
12:35 AM 44.6 °F 41.7 °F 90% 29.95 in 10.0 mi Calm Calm - N/A   Clear
12:55 AM 44.1 °F 41.9 °F 92% 29.95 in 10.0 mi Calm Calm - N/A   Clear
1:35 AM 43.7 °F 40.6 °F 89% 29.95 in 10.0 mi Calm Calm - N/A   Clear
2:15 AM 44.6 °F 42.1 °F 91% 29.96 in 10.0 mi Calm Calm - N/A   Clear
2:35 AM 43.7 °F 40.6 °F 89% 29.96 in 10.0 mi Calm Calm - N/A   Clear
2:55 AM 43.7 °F 40.6 °F 89% 29.97 in 10.0 mi Calm Calm - N/A   Clear
3:35 AM 43.7 °F 41.4 °F 91% 29.97 in 10.0 mi Calm Calm - N/A   Clear
4:15 AM 43.3 °F 41.0 °F 91% 29.97 in 10.0 mi Calm Calm - N/A   Clear
4:55 AM 42.8 °F 40.5 °F 91% 29.98 in 10.0 mi Calm Calm - N/A   Clear
5:15 AM 42.1 °F 40.6 °F 95% 29.99 in 10.0 mi Calm Calm - N/A   Clear
5:35 AM 43.0 °F 41.5 °F 95% 29.99 in 10.0 mi Calm Calm - N/A   Clear
5:55 AM 41.9 °F 40.8 °F 96% 29.99 in 10.0 mi Calm Calm - N/A   Clear
6:15 AM 42.1 °F 40.8 °F 95% 30.00 in 10.0 mi Calm Calm - N/A   Clear
6:55 AM 43.0 °F 41.9 °F 96% 30.01 in 7.0 mi Calm Calm - N/A   Clear
7:15 AM 43.9 °F 42.4 °F 95% 30.01 in 10.0 mi Calm Calm - N/A   Clear
7:35 AM 46.2 °F 44.4 °F 93% 30.02 in 10.0 mi Calm Calm - N/A   Clear
7:55 AM 50.0 °F 46.9 °F 89% 30.02 in 10.0 mi Calm Calm - N/A   Clear
8:15 AM 52.7 °F 47.8 °F 84% 30.02 in 10.0 mi Calm Calm - N/A   Clear
8:55 AM 58.6 °F 50.5 °F 74% 30.03 in 10.0 mi Calm Calm - N/A   Clear
9:15 AM 62.1 °F 50.7 °F 66% 30.04 in 10.0 mi West 3.5 mph - N/A   Clear
9:35 AM 64.6 °F 50.9 °F 61% 30.04 in 10.0 mi WSW 5.8 mph - N/A   Clear
9:55 AM 66.0 °F 51.3 °F 59% 30.05 in 10.0 mi WSW 5.8 mph - N/A   Clear
10:15 AM 66.9 °F 51.6 °F 58% 30.04 in 10.0 mi WSW 3.5 mph - N/A   Clear
10:55 AM 70.3 °F 50.5 °F 49% 30.03 in 10.0 mi NW 5.8 mph - N/A   Clear
11:15 AM 72.0 °F 48.7 °F 44% 30.02 in 10.0 mi WNW 6.9 mph - N/A   Clear
11:35 AM 72.7 °F 49.8 °F 44% 30.02 in 10.0 mi WNW 8.1 mph - N/A   Clear
11:55 AM 73.4 °F 48.4 °F 41% 30.02 in 10.0 mi NW 9.2 mph - N/A   Clear
12:15 PM 73.6 °F 48.6 °F 41% 30.01 in 10.0 mi WNW 8.1 mph - N/A   Clear
12:35 PM 74.3 °F 48.4 °F 40% 30.00 in 10.0 mi West 6.9 mph - N/A   Clear
12:55 PM 75.2 °F 46.2 °F 36% 29.99 in 10.0 mi WNW 3.5 mph - N/A   Clear
1:35 PM 75.6 °F 45.7 °F 35% 29.98 in 10.0 mi Calm Calm - N/A   Clear
1:55 PM 76.1 °F 45.3 °F 33% 29.98 in 10.0 mi Calm Calm - N/A   Clear
2:15 PM 76.5 °F 44.8 °F 32% 29.98 in 10.0 mi WNW 3.5 mph - N/A   Clear
2:55 PM 76.8 °F 42.4 °F 29% 29.98 in 10.0 mi Calm Calm - N/A   Clear
3:15 PM 77.0 °F 43.9 °F 31% 29.98 in 10.0 mi Calm Calm - N/A   Clear
3:55 PM 76.6 °F 42.8 °F 30% 29.99 in 10.0 mi Calm Calm - N/A   Clear
4:15 PM 75.9 °F 42.3 °F 30% 29.99 in 10.0 mi Calm Calm - N/A   Clear
4:35 PM 74.3 °F 45.0 °F 35% 30.00 in 7.0 mi Calm Calm - N/A   Clear
4:55 PM 70.9 °F 54.5 °F 56% 30.00 in 10.0 mi South 6.9 mph - N/A   Clear
5:15 PM 67.8 °F 56.8 °F 68% 30.00 in 10.0 mi South 5.8 mph - N/A   Clear
5:35 PM 66.4 °F 57.4 °F 73% 30.01 in 10.0 mi SSW 5.8 mph - N/A   Clear
5:55 PM 65.1 °F 57.2 °F 75% 30.01 in 10.0 mi South 5.8 mph - N/A   Clear
6:15 PM 63.7 °F 56.3 °F 77% 30.02 in 10.0 mi South 5.8 mph - N/A   Clear
6:35 PM 62.6 °F 55.4 °F 77% 30.02 in 10.0 mi South 5.8 mph - N/A   Clear
6:55 PM 61.7 °F 55.4 °F 80% 30.02 in 10.0 mi SSW 5.8 mph - N/A   Clear
7:15 PM 60.8 °F 55.6 °F 83% 30.03 in 10.0 mi SSW 4.6 mph - N/A   Clear
7:35 PM 60.3 °F 55.9 °F 86% 30.03 in 10.0 mi SSW 5.8 mph - N/A   Clear
7:55 PM 59.7 °F 56.1 °F 88% 30.05 in 10.0 mi SSW 5.8 mph - N/A   Clear
8:15 PM 59.0 °F 55.6 °F 88% 30.05 in 10.0 mi Calm Calm - N/A   Clear
8:35 PM 57.7 °F 54.9 °F 90% 30.04 in 10.0 mi Calm Calm - N/A   Clear
8:55 PM 57.2 °F 54.9 °F 92% 30.05 in 10.0 mi Calm Calm - N/A   Clear
9:15 PM 57.2 °F 54.5 °F 91% 30.05 in 10.0 mi Calm Calm - N/A   Clear
9:55 PM 55.4 °F 54.0 °F 95% 30.05 in 5.0 mi North - - N/A   Clear
10:15 PM 53.8 °F 52.5 °F 95% 30.05 in 2.5 mi Calm Calm - N/A   Clear
10:35 PM 52.9 °F 52.0 °F 97% 30.06 in 1.0 mi Calm Calm - N/A   Scattered Clouds
10:55 PM 52.0 °F 51.1 °F 97% 30.06 in 0.2 mi Calm Calm - N/A Fog Fog
11:55 PM 50.5 °F 49.8 °F 97% 30.06 in 5.0 mi Calm Calm - N/A   Clear